sensor_id;sensor_type;location;lat;lon;timestamp;P1;durP1;ratioP1;P2;durP2;ratioP2
59468;SDS011;45277;52.768;18.262;2023-03-01T00:01:18;38.55;;;16.50;;
59468;SDS011;45277;52.768;18.262;2023-03-01T00:02:52;31.58;;;16.00;;
59468;SDS011;45277;52.768;18.262;2023-03-01T00:04:23;39.42;;;15.25;;
59468;SDS011;45277;52.768;18.262;2023-03-01T00:05:54;40.88;;;17.35;;
59468;SDS011;45277;52.768;18.262;2023-03-01T00:07:26;33.50;;;15.52;;
59468;SDS011;45277;52.768;18.262;2023-03-01T00:08:57;38.78;;;16.10;;
59468;SDS011;45277;52.768;18.262;2023-03-01T00:10:29;34.78;;;14.45;;
59468;SDS011;45277;52.768;18.262;2023-03-01T00:12:00;33.00;;;15.63;;
59468;SDS011;45277;52.768;18.262;2023-03-01T00:13:32;30.48;;;14.55;;
59468;SDS011;45277;52.768;18.262;2023-03-01T00:15:05;34.83;;;15.65;;
59468;SDS011;45277;52.768;18.262;2023-03-01T00:16:38;36.63;;;15.98;;
59468;SDS011;45277;52.768;18.262;2023-03-01T00:18:10;38.05;;;15.30;;
59468;SDS011;45277;52.768;18.262;2023-03-01T00:19:41;39.83;;;17.70;;
59468;SDS011;45277;52.768;18.262;2023-03-01T00:21:13;37.10;;;16.80;;
59468;SDS011;45277;52.768;18.262;2023-03-01T00:22:45;36.20;;;17.48;;
59468;SDS011;45277;52.768;18.262;2023-03-01T00:24:16;39.33;;;17.30;;
59468;SDS011;45277;52.768;18.262;2023-03-01T00:25:48;42.65;;;18.50;;
59468;SDS011;45277;52.768;18.262;2023-03-01T00:27:19;40.38;;;18.27;;
59468;SDS011;45277;52.768;18.262;2023-03-01T00:28:51;40.78;;;17.50;;
59468;SDS011;45277;52.768;18.262;2023-03-01T00:30:23;35.90;;;17.20;;
59468;SDS011;45277;52.768;18.262;2023-03-01T00:31:54;38.88;;;17.83;;
59468;SDS011;45277;52.768;18.262;2023-03-01T00:33:25;36.83;;;17.80;;
59468;SDS011;45277;52.768;18.262;2023-03-01T00:34:57;41.08;;;18.33;;
59468;SDS011;45277;52.768;18.262;2023-03-01T00:36:30;38.85;;;17.50;;
59468;SDS011;45277;52.768;18.262;2023-03-01T00:38:02;39.58;;;17.85;;
59468;SDS011;45277;52.768;18.262;2023-03-01T00:39:35;45.40;;;20.10;;
59468;SDS011;45277;52.768;18.262;2023-03-01T00:41:07;40.58;;;18.42;;
59468;SDS011;45277;52.768;18.262;2023-03-01T00:42:40;39.58;;;18.00;;
59468;SDS011;45277;52.768;18.262;2023-03-01T00:44:12;37.58;;;18.67;;
59468;SDS011;45277;52.768;18.262;2023-03-01T00:45:43;38.35;;;18.85;;
59468;SDS011;45277;52.768;18.262;2023-03-01T00:47:14;38.58;;;18.77;;
59468;SDS011;45277;52.768;18.262;2023-03-01T00:48:46;41.30;;;18.23;;
59468;SDS011;45277;52.768;18.262;2023-03-01T00:50:18;34.70;;;18.10;;
59468;SDS011;45277;52.768;18.262;2023-03-01T00:51:50;39.33;;;17.90;;
59468;SDS011;45277;52.768;18.262;2023-03-01T00:53:22;36.05;;;17.38;;
59468;SDS011;45277;52.768;18.262;2023-03-01T00:54:53;35.63;;;16.63;;
59468;SDS011;45277;52.768;18.262;2023-03-01T00:56:24;40.30;;;17.95;;
59468;SDS011;45277;52.768;18.262;2023-03-01T00:57:56;89.07;;;31.13;;
59468;SDS011;45277;52.768;18.262;2023-03-01T00:59:28;92.60;;;33.67;;
59468;SDS011;45277;52.768;18.262;2023-03-01T01:00:59;100.90;;;34.28;;
59468;SDS011;45277;52.768;18.262;2023-03-01T01:02:34;62.83;;;25.27;;
59468;SDS011;45277;52.768;18.262;2023-03-01T01:04:07;74.07;;;24.35;;
59468;SDS011;45277;52.768;18.262;2023-03-01T01:05:40;85.70;;;29.08;;
59468;SDS011;45277;52.768;18.262;2023-03-01T01:07:12;76.20;;;28.83;;
59468;SDS011;45277;52.768;18.262;2023-03-01T01:08:44;90.57;;;33.80;;
59468;SDS011;45277;52.768;18.262;2023-03-01T01:10:15;69.95;;;26.30;;
59468;SDS011;45277;52.768;18.262;2023-03-01T01:11:48;64.50;;;28.90;;
59468;SDS011;45277;52.768;18.262;2023-03-01T01:13:21;68.47;;;29.73;;
59468;SDS011;45277;52.768;18.262;2023-03-01T01:14:52;69.05;;;27.30;;
59468;SDS011;45277;52.768;18.262;2023-03-01T01:16:25;50.47;;;21.70;;
59468;SDS011;45277;52.768;18.262;2023-03-01T01:17:57;49.05;;;20.23;;
59468;SDS011;45277;52.768;18.262;2023-03-01T01:19:28;37.88;;;19.30;;
59468;SDS011;45277;52.768;18.262;2023-03-01T01:21:07;45.10;;;19.92;;
59468;SDS011;45277;52.768;18.262;2023-03-01T01:22:41;42.53;;;19.10;;
59468;SDS011;45277;52.768;18.262;2023-03-01T01:24:12;48.25;;;20.42;;
59468;SDS011;45277;52.768;18.262;2023-03-01T01:25:44;54.97;;;23.02;;
59468;SDS011;45277;52.768;18.262;2023-03-01T01:27:16;52.10;;;22.58;;
59468;SDS011;45277;52.768;18.262;2023-03-01T01:28:47;55.00;;;22.63;;
59468;SDS011;45277;52.768;18.262;2023-03-01T01:30:19;56.55;;;23.05;;
59468;SDS011;45277;52.768;18.262;2023-03-01T01:31:50;59.58;;;22.80;;
59468;SDS011;45277;52.768;18.262;2023-03-01T01:33:22;55.40;;;20.58;;
59468;SDS011;45277;52.768;18.262;2023-03-01T01:34:53;46.90;;;21.70;;
59468;SDS011;45277;52.768;18.262;2023-03-01T01:36:25;48.83;;;20.33;;
59468;SDS011;45277;52.768;18.262;2023-03-01T01:37:56;44.65;;;19.35;;
59468;SDS011;45277;52.768;18.262;2023-03-01T01:39:28;45.10;;;19.25;;
59468;SDS011;45277;52.768;18.262;2023-03-01T01:41:00;44.88;;;19.75;;
59468;SDS011;45277;52.768;18.262;2023-03-01T01:42:31;45.28;;;19.83;;
59468;SDS011;45277;52.768;18.262;2023-03-01T01:44:17;44.05;;;19.55;;
59468;SDS011;45277;52.768;18.262;2023-03-01T01:45:51;41.67;;;18.00;;
59468;SDS011;45277;52.768;18.262;2023-03-01T01:47:27;51.10;;;20.95;;
59468;SDS011;45277;52.768;18.262;2023-03-01T01:49:22;51.95;;;21.10;;
59468;SDS011;45277;52.768;18.262;2023-03-01T01:50:58;43.25;;;19.05;;
59468;SDS011;45277;52.768;18.262;2023-03-01T01:52:34;41.70;;;18.98;;
59468;SDS011;45277;52.768;18.262;2023-03-01T01:54:14;48.42;;;19.90;;
59468;SDS011;45277;52.768;18.262;2023-03-01T01:55:51;46.28;;;19.02;;
59468;SDS011;45277;52.768;18.262;2023-03-01T01:57:29;43.15;;;19.08;;
59468;SDS011;45277;52.768;18.262;2023-03-01T01:59:06;36.70;;;18.02;;
59468;SDS011;45277;52.768;18.262;2023-03-01T02:00:37;39.88;;;18.80;;
59468;SDS011;45277;52.768;18.262;2023-03-01T02:02:09;32.08;;;16.10;;
59468;SDS011;45277;52.768;18.262;2023-03-01T02:03:42;38.72;;;19.27;;
59468;SDS011;45277;52.768;18.262;2023-03-01T02:05:24;76.15;;;28.13;;
59468;SDS011;45277;52.768;18.262;2023-03-01T02:07:13;52.75;;;22.20;;
59468;SDS011;45277;52.768;18.262;2023-03-01T02:08:47;56.65;;;22.63;;
59468;SDS011;45277;52.768;18.262;2023-03-01T02:10:21;52.55;;;22.38;;
59468;SDS011;45277;52.768;18.262;2023-03-01T02:11:54;47.80;;;20.52;;
59468;SDS011;45277;52.768;18.262;2023-03-01T02:13:26;42.72;;;18.52;;
59468;SDS011;45277;52.768;18.262;2023-03-01T02:14:58;38.45;;;18.05;;
59468;SDS011;45277;52.768;18.262;2023-03-01T02:16:29;36.83;;;18.95;;
59468;SDS011;45277;52.768;18.262;2023-03-01T02:18:02;28.85;;;15.32;;
59468;SDS011;45277;52.768;18.262;2023-03-01T02:21:28;35.92;;;16.70;;
59468;SDS011;45277;52.768;18.262;2023-03-01T02:23:19;37.97;;;17.25;;
59468;SDS011;45277;52.768;18.262;2023-03-01T02:26:42;33.38;;;16.70;;
59468;SDS011;45277;52.768;18.262;2023-03-01T02:30:03;43.47;;;19.83;;
59468;SDS011;45277;52.768;18.262;2023-03-01T02:31:35;39.67;;;17.80;;
59468;SDS011;45277;52.768;18.262;2023-03-01T02:33:12;39.92;;;17.55;;
59468;SDS011;45277;52.768;18.262;2023-03-01T02:34:44;36.85;;;18.30;;
59468;SDS011;45277;52.768;18.262;2023-03-01T02:36:17;43.80;;;19.10;;
59468;SDS011;45277;52.768;18.262;2023-03-01T02:39:30;36.83;;;17.77;;
59468;SDS011;45277;52.768;18.262;2023-03-01T02:41:07;39.97;;;19.70;;
59468;SDS011;45277;52.768;18.262;2023-03-01T02:42:53;38.47;;;17.45;;
59468;SDS011;45277;52.768;18.262;2023-03-01T02:44:27;42.33;;;19.77;;
59468;SDS011;45277;52.768;18.262;2023-03-01T02:45:59;42.88;;;19.45;;
59468;SDS011;45277;52.768;18.262;2023-03-01T02:47:38;40.72;;;19.40;;
59468;SDS011;45277;52.768;18.262;2023-03-01T02:49:19;38.15;;;18.17;;
59468;SDS011;45277;52.768;18.262;2023-03-01T02:52:45;40.50;;;18.83;;
59468;SDS011;45277;52.768;18.262;2023-03-01T02:54:52;37.90;;;17.42;;
59468;SDS011;45277;52.768;18.262;2023-03-01T02:56:29;30.48;;;15.60;;
59468;SDS011;45277;52.768;18.262;2023-03-01T02:58:02;38.40;;;18.08;;
59468;SDS011;45277;52.768;18.262;2023-03-01T02:59:34;38.85;;;17.25;;
59468;SDS011;45277;52.768;18.262;2023-03-01T03:01:09;35.08;;;17.02;;
59468;SDS011;45277;52.768;18.262;2023-03-01T03:02:41;38.58;;;17.88;;
59468;SDS011;45277;52.768;18.262;2023-03-01T03:04:14;31.85;;;16.02;;
59468;SDS011;45277;52.768;18.262;2023-03-01T03:05:48;35.60;;;17.23;;
59468;SDS011;45277;52.768;18.262;2023-03-01T03:07:19;32.38;;;16.50;;
59468;SDS011;45277;52.768;18.262;2023-03-01T03:08:51;34.65;;;18.00;;
59468;SDS011;45277;52.768;18.262;2023-03-01T03:10:23;37.85;;;17.08;;
59468;SDS011;45277;52.768;18.262;2023-03-01T03:11:59;37.30;;;15.85;;
59468;SDS011;45277;52.768;18.262;2023-03-01T03:13:31;34.63;;;15.73;;
59468;SDS011;45277;52.768;18.262;2023-03-01T03:15:03;36.17;;;16.88;;
59468;SDS011;45277;52.768;18.262;2023-03-01T03:16:43;37.13;;;16.23;;
59468;SDS011;45277;52.768;18.262;2023-03-01T03:18:19;36.22;;;15.32;;
59468;SDS011;45277;52.768;18.262;2023-03-01T03:19:50;36.95;;;17.98;;
59468;SDS011;45277;52.768;18.262;2023-03-01T03:21:22;37.97;;;18.05;;
59468;SDS011;45277;52.768;18.262;2023-03-01T03:22:55;42.08;;;17.38;;
59468;SDS011;45277;52.768;18.262;2023-03-01T03:24:28;42.72;;;18.27;;
59468;SDS011;45277;52.768;18.262;2023-03-01T03:26:08;39.47;;;18.02;;
59468;SDS011;45277;52.768;18.262;2023-03-01T03:27:46;41.92;;;18.35;;
59468;SDS011;45277;52.768;18.262;2023-03-01T03:29:19;39.25;;;18.30;;
59468;SDS011;45277;52.768;18.262;2023-03-01T03:30:50;38.55;;;18.23;;
59468;SDS011;45277;52.768;18.262;2023-03-01T03:32:22;38.35;;;18.20;;
59468;SDS011;45277;52.768;18.262;2023-03-01T03:33:53;39.88;;;17.60;;
59468;SDS011;45277;52.768;18.262;2023-03-01T03:35:26;44.97;;;18.63;;
59468;SDS011;45277;52.768;18.262;2023-03-01T03:37:02;45.35;;;18.63;;
59468;SDS011;45277;52.768;18.262;2023-03-01T03:38:33;37.88;;;17.60;;
59468;SDS011;45277;52.768;18.262;2023-03-01T03:40:05;41.92;;;18.92;;
59468;SDS011;45277;52.768;18.262;2023-03-01T03:41:45;42.08;;;18.08;;
59468;SDS011;45277;52.768;18.262;2023-03-01T03:43:17;43.72;;;18.63;;
59468;SDS011;45277;52.768;18.262;2023-03-01T03:44:51;41.08;;;18.77;;
59468;SDS011;45277;52.768;18.262;2023-03-01T03:46:22;41.03;;;18.00;;
59468;SDS011;45277;52.768;18.262;2023-03-01T03:47:53;36.65;;;17.75;;
59468;SDS011;45277;52.768;18.262;2023-03-01T03:49:25;44.17;;;20.13;;
59468;SDS011;45277;52.768;18.262;2023-03-01T03:50:56;36.20;;;15.75;;
59468;SDS011;45277;52.768;18.262;2023-03-01T03:52:28;38.60;;;17.65;;
59468;SDS011;45277;52.768;18.262;2023-03-01T03:53:59;43.92;;;20.65;;
59468;SDS011;45277;52.768;18.262;2023-03-01T03:55:31;57.67;;;20.88;;
59468;SDS011;45277;52.768;18.262;2023-03-01T03:57:04;46.80;;;20.30;;
59468;SDS011;45277;52.768;18.262;2023-03-01T03:58:36;45.08;;;19.08;;
59468;SDS011;45277;52.768;18.262;2023-03-01T04:00:09;45.97;;;18.63;;
59468;SDS011;45277;52.768;18.262;2023-03-01T04:01:45;46.22;;;19.80;;
59468;SDS011;45277;52.768;18.262;2023-03-01T04:03:17;32.45;;;16.40;;
59468;SDS011;45277;52.768;18.262;2023-03-01T04:04:50;36.47;;;15.55;;
59468;SDS011;45277;52.768;18.262;2023-03-01T04:06:21;42.92;;;19.00;;
59468;SDS011;45277;52.768;18.262;2023-03-01T04:07:53;40.63;;;18.80;;
59468;SDS011;45277;52.768;18.262;2023-03-01T04:09:37;46.42;;;24.67;;
59468;SDS011;45277;52.768;18.262;2023-03-01T04:11:08;48.90;;;25.20;;
59468;SDS011;45277;52.768;18.262;2023-03-01T04:12:58;44.05;;;22.38;;
59468;SDS011;45277;52.768;18.262;2023-03-01T04:14:30;55.17;;;23.45;;
59468;SDS011;45277;52.768;18.262;2023-03-01T04:16:01;51.63;;;23.05;;
59468;SDS011;45277;52.768;18.262;2023-03-01T04:17:33;46.97;;;22.00;;
59468;SDS011;45277;52.768;18.262;2023-03-01T04:19:04;42.50;;;19.88;;
59468;SDS011;45277;52.768;18.262;2023-03-01T04:20:36;40.72;;;18.80;;
59468;SDS011;45277;52.768;18.262;2023-03-01T04:22:09;38.25;;;16.65;;
59468;SDS011;45277;52.768;18.262;2023-03-01T04:23:41;34.90;;;17.58;;
59468;SDS011;45277;52.768;18.262;2023-03-01T04:25:13;34.17;;;17.08;;
59468;SDS011;45277;52.768;18.262;2023-03-01T04:26:45;35.08;;;16.85;;
59468;SDS011;45277;52.768;18.262;2023-03-01T04:28:16;32.42;;;15.52;;
59468;SDS011;45277;52.768;18.262;2023-03-01T04:29:48;31.27;;;16.20;;
59468;SDS011;45277;52.768;18.262;2023-03-01T04:31:19;34.38;;;17.40;;
59468;SDS011;45277;52.768;18.262;2023-03-01T04:32:51;41.17;;;19.38;;
59468;SDS011;45277;52.768;18.262;2023-03-01T04:34:22;55.05;;;22.45;;
59468;SDS011;45277;52.768;18.262;2023-03-01T04:35:54;78.20;;;27.75;;
59468;SDS011;45277;52.768;18.262;2023-03-01T04:37:25;66.32;;;24.60;;
59468;SDS011;45277;52.768;18.262;2023-03-01T04:38:57;109.30;;;34.75;;
59468;SDS011;45277;52.768;18.262;2023-03-01T04:40:29;84.38;;;32.97;;
59468;SDS011;45277;52.768;18.262;2023-03-01T04:42:00;95.72;;;32.40;;
59468;SDS011;45277;52.768;18.262;2023-03-01T04:43:31;59.70;;;22.02;;
59468;SDS011;45277;52.768;18.262;2023-03-01T04:45:05;61.95;;;22.88;;
59468;SDS011;45277;52.768;18.262;2023-03-01T04:46:43;40.28;;;18.48;;
59468;SDS011;45277;52.768;18.262;2023-03-01T04:48:14;42.38;;;18.92;;
59468;SDS011;45277;52.768;18.262;2023-03-01T04:49:46;35.45;;;17.95;;
59468;SDS011;45277;52.768;18.262;2023-03-01T04:51:17;37.25;;;17.05;;
59468;SDS011;45277;52.768;18.262;2023-03-01T04:52:49;38.65;;;17.48;;
59468;SDS011;45277;52.768;18.262;2023-03-01T04:54:20;41.70;;;16.80;;
59468;SDS011;45277;52.768;18.262;2023-03-01T04:55:52;31.73;;;17.25;;
59468;SDS011;45277;52.768;18.262;2023-03-01T04:57:26;35.80;;;17.80;;
59468;SDS011;45277;52.768;18.262;2023-03-01T04:58:57;42.95;;;19.00;;
59468;SDS011;45277;52.768;18.262;2023-03-01T05:00:29;62.05;;;23.48;;
59468;SDS011;45277;52.768;18.262;2023-03-01T05:02:00;74.07;;;28.80;;
59468;SDS011;45277;52.768;18.262;2023-03-01T05:03:32;94.22;;;35.10;;
59468;SDS011;45277;52.768;18.262;2023-03-01T05:05:03;39.42;;;18.83;;
59468;SDS011;45277;52.768;18.262;2023-03-01T05:06:36;38.33;;;19.08;;
59468;SDS011;45277;52.768;18.262;2023-03-01T05:08:08;36.42;;;17.52;;
59468;SDS011;45277;52.768;18.262;2023-03-01T05:09:39;33.20;;;16.98;;
59468;SDS011;45277;52.768;18.262;2023-03-01T05:11:11;35.67;;;18.48;;
59468;SDS011;45277;52.768;18.262;2023-03-01T05:12:42;42.45;;;20.85;;
59468;SDS011;45277;52.768;18.262;2023-03-01T05:14:14;39.40;;;19.42;;
59468;SDS011;45277;52.768;18.262;2023-03-01T05:15:45;39.15;;;18.55;;
59468;SDS011;45277;52.768;18.262;2023-03-01T05:19:07;31.70;;;15.07;;
59468;SDS011;45277;52.768;18.262;2023-03-01T05:20:45;41.83;;;19.15;;
59468;SDS011;45277;52.768;18.262;2023-03-01T05:22:18;35.70;;;18.65;;
59468;SDS011;45277;52.768;18.262;2023-03-01T05:23:49;38.88;;;18.40;;
59468;SDS011;45277;52.768;18.262;2023-03-01T05:25:21;36.33;;;19.38;;
59468;SDS011;45277;52.768;18.262;2023-03-01T05:26:53;38.88;;;18.63;;
59468;SDS011;45277;52.768;18.262;2023-03-01T05:28:24;33.25;;;18.35;;
59468;SDS011;45277;52.768;18.262;2023-03-01T05:29:58;47.78;;;23.25;;
59468;SDS011;45277;52.768;18.262;2023-03-01T05:31:30;43.58;;;20.38;;
59468;SDS011;45277;52.768;18.262;2023-03-01T05:33:01;38.13;;;18.38;;
59468;SDS011;45277;52.768;18.262;2023-03-01T05:34:33;34.45;;;17.63;;
59468;SDS011;45277;52.768;18.262;2023-03-01T05:36:07;37.35;;;17.05;;
59468;SDS011;45277;52.768;18.262;2023-03-01T05:37:40;39.13;;;15.57;;
59468;SDS011;45277;52.768;18.262;2023-03-01T05:39:16;37.40;;;17.08;;
59468;SDS011;45277;52.768;18.262;2023-03-01T05:40:48;35.20;;;16.98;;
59468;SDS011;45277;52.768;18.262;2023-03-01T05:42:22;37.97;;;17.55;;
59468;SDS011;45277;52.768;18.262;2023-03-01T05:43:54;40.28;;;17.20;;
59468;SDS011;45277;52.768;18.262;2023-03-01T05:45:26;37.08;;;17.58;;
59468;SDS011;45277;52.768;18.262;2023-03-01T05:46:58;41.42;;;17.80;;
59468;SDS011;45277;52.768;18.262;2023-03-01T05:48:30;41.40;;;16.17;;
59468;SDS011;45277;52.768;18.262;2023-03-01T05:50:02;33.38;;;16.98;;
59468;SDS011;45277;52.768;18.262;2023-03-01T05:51:33;37.47;;;17.42;;
59468;SDS011;45277;52.768;18.262;2023-03-01T05:53:06;40.05;;;17.80;;
59468;SDS011;45277;52.768;18.262;2023-03-01T05:54:41;43.63;;;17.77;;
59468;SDS011;45277;52.768;18.262;2023-03-01T05:56:12;40.80;;;17.33;;
59468;SDS011;45277;52.768;18.262;2023-03-01T05:57:43;45.45;;;19.92;;
59468;SDS011;45277;52.768;18.262;2023-03-01T05:59:16;38.03;;;17.88;;
59468;SDS011;45277;52.768;18.262;2023-03-01T06:00:47;47.63;;;17.25;;
59468;SDS011;45277;52.768;18.262;2023-03-01T06:02:23;43.40;;;18.25;;
59468;SDS011;45277;52.768;18.262;2023-03-01T06:03:55;46.10;;;18.35;;
59468;SDS011;45277;52.768;18.262;2023-03-01T06:05:27;41.28;;;20.00;;
59468;SDS011;45277;52.768;18.262;2023-03-01T06:06:59;38.55;;;18.25;;
59468;SDS011;45277;52.768;18.262;2023-03-01T06:08:31;42.75;;;19.65;;
59468;SDS011;45277;52.768;18.262;2023-03-01T06:10:03;40.38;;;19.02;;
59468;SDS011;45277;52.768;18.262;2023-03-01T06:11:35;43.88;;;16.75;;
59468;SDS011;45277;52.768;18.262;2023-03-01T06:13:08;39.50;;;18.13;;
59468;SDS011;45277;52.768;18.262;2023-03-01T06:14:39;45.58;;;17.73;;
59468;SDS011;45277;52.768;18.262;2023-03-01T06:16:11;36.25;;;18.70;;
59468;SDS011;45277;52.768;18.262;2023-03-01T06:17:44;39.53;;;17.60;;
59468;SDS011;45277;52.768;18.262;2023-03-01T06:19:16;39.90;;;17.45;;
59468;SDS011;45277;52.768;18.262;2023-03-01T06:20:54;42.05;;;18.27;;
59468;SDS011;45277;52.768;18.262;2023-03-01T06:22:26;44.03;;;17.77;;
59468;SDS011;45277;52.768;18.262;2023-03-01T06:23:58;34.13;;;15.80;;
59468;SDS011;45277;52.768;18.262;2023-03-01T06:25:29;39.83;;;14.90;;
59468;SDS011;45277;52.768;18.262;2023-03-01T06:27:01;41.47;;;14.48;;
59468;SDS011;45277;52.768;18.262;2023-03-01T06:28:32;29.08;;;14.98;;
59468;SDS011;45277;52.768;18.262;2023-03-01T06:30:04;43.10;;;18.23;;
59468;SDS011;45277;52.768;18.262;2023-03-01T06:31:37;39.67;;;20.02;;
59468;SDS011;45277;52.768;18.262;2023-03-01T06:33:08;44.90;;;17.85;;
59468;SDS011;45277;52.768;18.262;2023-03-01T06:34:39;55.97;;;20.10;;
59468;SDS011;45277;52.768;18.262;2023-03-01T06:36:11;48.72;;;17.42;;
59468;SDS011;45277;52.768;18.262;2023-03-01T06:37:42;41.58;;;17.17;;
59468;SDS011;45277;52.768;18.262;2023-03-01T06:39:14;41.47;;;17.33;;
59468;SDS011;45277;52.768;18.262;2023-03-01T06:40:53;38.25;;;17.25;;
59468;SDS011;45277;52.768;18.262;2023-03-01T06:42:26;29.30;;;13.70;;
59468;SDS011;45277;52.768;18.262;2023-03-01T06:43:58;35.67;;;15.20;;
59468;SDS011;45277;52.768;18.262;2023-03-01T06:45:30;34.25;;;16.90;;
59468;SDS011;45277;52.768;18.262;2023-03-01T06:47:01;33.53;;;15.60;;
59468;SDS011;45277;52.768;18.262;2023-03-01T06:48:33;41.47;;;18.35;;
59468;SDS011;45277;52.768;18.262;2023-03-01T06:50:05;45.17;;;19.13;;
59468;SDS011;45277;52.768;18.262;2023-03-01T06:51:37;48.17;;;18.33;;
59468;SDS011;45277;52.768;18.262;2023-03-01T06:53:09;43.78;;;17.45;;
59468;SDS011;45277;52.768;18.262;2023-03-01T06:54:41;36.65;;;15.60;;
59468;SDS011;45277;52.768;18.262;2023-03-01T06:56:20;31.10;;;16.50;;
59468;SDS011;45277;52.768;18.262;2023-03-01T06:57:55;35.25;;;15.60;;
59468;SDS011;45277;52.768;18.262;2023-03-01T06:59:30;37.65;;;15.75;;
59468;SDS011;45277;52.768;18.262;2023-03-01T07:01:05;44.53;;;17.85;;
59468;SDS011;45277;52.768;18.262;2023-03-01T07:02:39;42.35;;;19.83;;
59468;SDS011;45277;52.768;18.262;2023-03-01T07:04:12;27.45;;;16.08;;
59468;SDS011;45277;52.768;18.262;2023-03-01T07:05:44;33.90;;;14.93;;
59468;SDS011;45277;52.768;18.262;2023-03-01T07:07:15;29.73;;;13.38;;
59468;SDS011;45277;52.768;18.262;2023-03-01T07:08:48;24.30;;;11.25;;
59468;SDS011;45277;52.768;18.262;2023-03-01T07:10:20;30.27;;;14.85;;
59468;SDS011;45277;52.768;18.262;2023-03-01T07:11:51;42.45;;;18.58;;
59468;SDS011;45277;52.768;18.262;2023-03-01T07:13:23;29.77;;;13.48;;
59468;SDS011;45277;52.768;18.262;2023-03-01T07:14:54;26.88;;;14.05;;
59468;SDS011;45277;52.768;18.262;2023-03-01T07:16:35;29.13;;;12.02;;
59468;SDS011;45277;52.768;18.262;2023-03-01T07:18:08;25.52;;;12.93;;
59468;SDS011;45277;52.768;18.262;2023-03-01T07:19:39;31.80;;;14.15;;
59468;SDS011;45277;52.768;18.262;2023-03-01T07:21:12;26.13;;;13.20;;
59468;SDS011;45277;52.768;18.262;2023-03-01T07:22:44;22.77;;;11.85;;
59468;SDS011;45277;52.768;18.262;2023-03-01T07:24:16;27.08;;;12.75;;
59468;SDS011;45277;52.768;18.262;2023-03-01T07:25:53;36.90;;;14.43;;
59468;SDS011;45277;52.768;18.262;2023-03-01T07:27:25;16.35;;;8.68;;
59468;SDS011;45277;52.768;18.262;2023-03-01T07:28:58;18.25;;;9.15;;
59468;SDS011;45277;52.768;18.262;2023-03-01T07:30:31;19.40;;;8.80;;
59468;SDS011;45277;52.768;18.262;2023-03-01T07:32:03;20.42;;;10.68;;
59468;SDS011;45277;52.768;18.262;2023-03-01T07:33:36;23.88;;;10.60;;
59468;SDS011;45277;52.768;18.262;2023-03-01T07:35:07;23.73;;;12.85;;
59468;SDS011;45277;52.768;18.262;2023-03-01T07:36:39;28.13;;;13.27;;
59468;SDS011;45277;52.768;18.262;2023-03-01T07:38:13;29.80;;;14.38;;
59468;SDS011;45277;52.768;18.262;2023-03-01T07:39:44;13.77;;;8.80;;
59468;SDS011;45277;52.768;18.262;2023-03-01T07:41:16;24.00;;;11.38;;
59468;SDS011;45277;52.768;18.262;2023-03-01T07:42:48;14.57;;;8.68;;
59468;SDS011;45277;52.768;18.262;2023-03-01T07:44:19;13.40;;;7.43;;
59468;SDS011;45277;52.768;18.262;2023-03-01T07:45:51;32.25;;;9.57;;
59468;SDS011;45277;52.768;18.262;2023-03-01T07:47:22;30.77;;;13.05;;
59468;SDS011;45277;52.768;18.262;2023-03-01T07:48:54;31.88;;;13.60;;
59468;SDS011;45277;52.768;18.262;2023-03-01T07:50:26;79.57;;;21.38;;
59468;SDS011;45277;52.768;18.262;2023-03-01T07:51:57;110.60;;;25.38;;
59468;SDS011;45277;52.768;18.262;2023-03-01T07:53:29;34.50;;;14.43;;
59468;SDS011;45277;52.768;18.262;2023-03-01T07:55:02;30.23;;;11.45;;
59468;SDS011;45277;52.768;18.262;2023-03-01T07:56:33;11.82;;;7.50;;
59468;SDS011;45277;52.768;18.262;2023-03-01T07:58:05;19.75;;;9.40;;
59468;SDS011;45277;52.768;18.262;2023-03-01T07:59:37;27.15;;;12.57;;
59468;SDS011;45277;52.768;18.262;2023-03-01T08:01:10;15.80;;;8.10;;
59468;SDS011;45277;52.768;18.262;2023-03-01T08:02:42;24.23;;;13.00;;
59468;SDS011;45277;52.768;18.262;2023-03-01T08:04:14;38.03;;;15.23;;
59468;SDS011;45277;52.768;18.262;2023-03-01T08:05:46;20.58;;;8.75;;
59468;SDS011;45277;52.768;18.262;2023-03-01T08:07:17;20.48;;;8.63;;
59468;SDS011;45277;52.768;18.262;2023-03-01T08:08:49;13.23;;;6.70;;
59468;SDS011;45277;52.768;18.262;2023-03-01T08:10:20;21.60;;;9.27;;
59468;SDS011;45277;52.768;18.262;2023-03-01T08:11:52;23.48;;;12.30;;
59468;SDS011;45277;52.768;18.262;2023-03-01T08:13:25;25.80;;;12.30;;
59468;SDS011;45277;52.768;18.262;2023-03-01T08:14:57;27.27;;;12.32;;
59468;SDS011;45277;52.768;18.262;2023-03-01T08:16:28;21.40;;;10.30;;
59468;SDS011;45277;52.768;18.262;2023-03-01T08:18:00;24.80;;;11.52;;
59468;SDS011;45277;52.768;18.262;2023-03-01T08:19:31;27.20;;;12.57;;
59468;SDS011;45277;52.768;18.262;2023-03-01T08:21:04;22.48;;;10.88;;
59468;SDS011;45277;52.768;18.262;2023-03-01T08:22:40;23.85;;;10.88;;
59468;SDS011;45277;52.768;18.262;2023-03-01T08:24:12;23.60;;;11.32;;
59468;SDS011;45277;52.768;18.262;2023-03-01T08:25:44;27.42;;;12.00;;
59468;SDS011;45277;52.768;18.262;2023-03-01T08:27:16;21.58;;;10.18;;
59468;SDS011;45277;52.768;18.262;2023-03-01T08:28:48;29.92;;;11.88;;
59468;SDS011;45277;52.768;18.262;2023-03-01T08:30:20;8.68;;;6.57;;
59468;SDS011;45277;52.768;18.262;2023-03-01T08:31:54;33.05;;;13.63;;
59468;SDS011;45277;52.768;18.262;2023-03-01T08:33:26;13.05;;;8.02;;
59468;SDS011;45277;52.768;18.262;2023-03-01T08:34:57;17.38;;;8.98;;
59468;SDS011;45277;52.768;18.262;2023-03-01T08:36:31;21.95;;;10.50;;
59468;SDS011;45277;52.768;18.262;2023-03-01T08:38:05;13.35;;;6.93;;
59468;SDS011;45277;52.768;18.262;2023-03-01T08:39:36;22.23;;;10.13;;
59468;SDS011;45277;52.768;18.262;2023-03-01T08:41:08;27.08;;;12.02;;
59468;SDS011;45277;52.768;18.262;2023-03-01T08:42:40;11.52;;;6.80;;
59468;SDS011;45277;52.768;18.262;2023-03-01T08:44:14;14.25;;;7.35;;
59468;SDS011;45277;52.768;18.262;2023-03-01T08:45:50;12.50;;;8.15;;
59468;SDS011;45277;52.768;18.262;2023-03-01T08:47:21;18.70;;;9.45;;
59468;SDS011;45277;52.768;18.262;2023-03-01T08:48:53;22.95;;;9.73;;
59468;SDS011;45277;52.768;18.262;2023-03-01T08:50:25;23.35;;;11.65;;
59468;SDS011;45277;52.768;18.262;2023-03-01T08:51:56;49.58;;;16.65;;
59468;SDS011;45277;52.768;18.262;2023-03-01T08:53:28;19.85;;;7.82;;
59468;SDS011;45277;52.768;18.262;2023-03-01T08:55:00;16.73;;;8.07;;
59468;SDS011;45277;52.768;18.262;2023-03-01T08:56:32;23.98;;;11.15;;
59468;SDS011;45277;52.768;18.262;2023-03-01T08:58:04;19.55;;;9.68;;
59468;SDS011;45277;52.768;18.262;2023-03-01T08:59:35;24.77;;;11.10;;
59468;SDS011;45277;52.768;18.262;2023-03-01T09:01:08;28.15;;;11.00;;
59468;SDS011;45277;52.768;18.262;2023-03-01T09:02:40;23.98;;;10.07;;
59468;SDS011;45277;52.768;18.262;2023-03-01T09:04:12;18.17;;;8.45;;
59468;SDS011;45277;52.768;18.262;2023-03-01T09:05:45;21.85;;;11.63;;
59468;SDS011;45277;52.768;18.262;2023-03-01T09:07:16;25.60;;;10.93;;